CYMH

Mary's Harbour Airport

Mary's Harbour, Canada
METAR CYMH 160518Z AUTO 29011G16KT 9SM -SN OVC075 M04/M08 A2953 RMK SLP002
Observed Flight Rules
Dec-16 @ 05:18 UTC (34 minutes ago) Visual Flight Rules
Wind Visibility Clouds Conditions
290° at 11 knots
 Gusting to 16 knots
9 miles
  • Overcast at 7,500' AGL
  • Light Snow
Temperatures Readings
Current -4°C / 25°F
Dewpoint -8°C / 18°F
Humidity 74%
Altimeter 29.53" Hg
Pressure 1000.2 hPa
Elevation 11
METAR CYMH 160518Z AUTO 29011G16KT 9SM -SN OVC075 M04/M08 A2953 RMK SLP002
Observed Flight Rules
Dec-16 @ 05:18 UTC
(34 minutes ago)
VFR
Wind Visibility
290° at 11 knots
 Gusting to 16 knots
9 miles
Clouds
  • Overcast at 7,500' AGL
Conditions
  • Light Snow
Temperature Dewpoint
-4°C / 25°F -8°C / 18°F
Humidity Altimeter Pressure
74% 29.53" Hg 1000.2 hPa